Time;durP1;ratioP1;P1;durP2;ratioP2;P2;SDS_P1;SDS_P2;PMS_P1;PMS_P2;Temp;Humidity;BMP_temperature;BMP_pressure;BME280_temperature;BME280_humidity;BME280_pressure;Samples;Min_cycle;Max_cycle;Signal;HPM_P1;HPM_P2
2023/03/13 00:01:57;;;;;;;;;5.00;4.50;;;;;15.90;71.57;100013.56;4998379;28;45386;-72
2023/03/13 00:04:22;;;;;;;;;4.00;3.00;;;;;16.00;71.60;100032.88;5002056;28;45428;-70
2023/03/13 00:06:48;;;;;;;;;2.00;2.00;;;;;16.05;71.17;100033.75;5001933;28;45616;-71
2023/03/13 00:09:15;;;;;;;;;3.00;2.33;;;;;16.00;71.72;100028.50;5001634;28;45439;-75
2023/03/13 00:11:41;;;;;;;;;6.00;5.00;;;;;15.96;73.88;100028.50;4998105;28;46089;-76
2023/03/13 00:14:07;;;;;;;;;4.33;3.33;;;;;15.92;73.06;100027.63;5003545;28;45624;-67
2023/03/13 00:16:39;;;;;;;;;2.00;1.00;;;;;15.91;72.44;100020.56;4998883;28;45423;-73
2023/03/13 00:19:06;;;;;;;;;7.33;6.00;;;;;15.86;72.77;100003.91;5000926;28;45670;-76
2023/03/13 00:21:32;;;;;;;;;2.00;2.00;;;;;15.89;73.11;100014.44;5003318;28;46197;-76
2023/03/13 00:24:00;;;;;;;;;2.67;2.67;;;;;15.85;72.53;100004.78;5004407;28;45542;-68
2023/03/13 00:26:26;;;;;;;;;3.00;2.00;;;;;15.91;72.13;100010.91;5000394;28;45423;-67
2023/03/13 00:28:53;;;;;;;;;3.00;2.67;;;;;15.91;72.05;100015.31;5003677;28;45638;-76
2023/03/13 00:31:23;;;;;;;;;1.00;1.00;;;;;15.93;71.15;100015.31;5005257;28;45452;-74
2023/03/13 00:33:51;;;;;;;;;12.00;11.33;;;;;15.91;70.76;100002.13;4999338;28;45475;-76
2023/03/13 00:36:23;;;;;;;;;4.33;3.67;;;;;16.01;69.57;100006.50;4998134;28;45546;-75
2023/03/13 00:38:50;;;;;;;;;5.00;5.00;;;;;16.03;69.55;99994.22;5001373;28;45638;-76
2023/03/13 00:41:18;;;;;;;;;9.67;8.00;;;;;16.09;69.32;100002.16;5008499;28;46368;-72
2023/03/13 00:43:45;;;;;;;;;6.00;6.00;;;;;16.14;68.57;100001.25;5008242;28;45546;-72
2023/03/13 00:46:12;;;;;;;;;1.67;1.67;;;;;16.10;68.12;99985.44;5007631;28;45493;-76
2023/03/13 00:48:38;;;;;;;;;1.67;1.67;;;;;16.21;67.96;99993.31;4998558;28;45433;-69
2023/03/13 00:51:04;;;;;;;;;2.00;2.00;;;;;16.26;67.75;99994.19;5002293;28;45542;-76
2023/03/13 00:53:30;;;;;;;;;1.00;1.00;;;;;16.29;67.48;99996.84;5008178;28;45448;-75
2023/03/13 00:55:59;;;;;;;;;1.00;1.00;;;;;16.34;67.54;99998.59;5013840;28;45358;-76
2023/03/13 00:58:27;;;;;;;;;0.00;0.00;;;;;16.37;67.04;99993.28;5001323;28;45288;-73
2023/03/13 01:00:53;;;;;;;;;1.00;1.00;;;;;16.44;66.46;99998.53;5006270;28;46029;-75
2023/03/13 01:03:20;;;;;;;;;1.00;1.00;;;;;16.48;66.24;99995.00;5012133;28;45473;-73
2023/03/13 01:05:57;;;;;;;;;2.67;2.00;;;;;16.53;65.88;99983.56;5005187;28;45529;-76
2023/03/13 01:08:23;;;;;;;;;7.33;6.00;;;;;16.57;65.30;99982.69;4997932;28;45221;-76
2023/03/13 01:10:48;;;;;;;;;4.67;4.00;;;;;16.57;65.39;99972.13;4999145;28;45457;-75
2023/03/13 01:13:14;;;;;;;;;2.00;2.00;;;;;16.64;65.41;99984.41;4999196;28;45934;-76
2023/03/13 01:15:39;;;;;;;;;3.00;2.67;;;;;16.65;65.25;99979.16;4998881;28;45520;-76
2023/03/13 01:18:05;;;;;;;;;1.00;1.00;;;;;16.66;65.32;99969.47;4998681;28;45363;-75
2023/03/13 01:20:30;;;;;;;;;1.33;1.33;;;;;16.66;65.26;99974.75;4999025;28;46121;-76
2023/03/13 01:22:56;;;;;;;;;1.00;1.00;;;;;16.69;64.70;99969.44;4997253;28;45674;-68
2023/03/13 01:25:21;;;;;;;;;2.00;2.00;;;;;16.72;64.86;99974.72;4999244;28;45669;-69
2023/03/13 01:27:47;;;;;;;;;1.00;1.00;;;;;16.60;64.90;99958.94;4998967;28;45434;-75
2023/03/13 01:30:12;;;;;;;;;1.00;1.00;;;;;16.71;65.10;99986.13;4998954;28;46189;-75
2023/03/13 01:32:38;;;;;;;;;2.00;2.00;;;;;16.72;64.92;99976.47;4994208;28;45475;-68
2023/03/13 01:35:04;;;;;;;;;4.00;4.00;;;;;16.70;64.80;99979.13;4991667;28;45488;-75
2023/03/13 01:37:29;;;;;;;;;3.33;3.33;;;;;16.73;64.49;99981.72;4998629;28;45862;-68
2023/03/13 01:39:55;;;;;;;;;4.00;3.33;;;;;16.77;63.99;99964.13;4983138;28;45524;-76
2023/03/13 01:42:20;;;;;;;;;3.00;2.67;;;;;16.81;64.16;99955.31;4998673;28;45370;-77
2023/03/13 01:44:55;;;;;;;;;8.33;7.33;;;;;16.86;63.02;99969.41;4997818;28;45500;-77
2023/03/13 01:47:21;;;;;;;;;3.00;3.00;;;;;16.92;62.57;99939.50;4998251;28;45584;-77
2023/03/13 01:49:47;;;;;;;;;1.00;0.00;;;;;17.01;61.19;99937.69;4998130;28;45888;-77
2023/03/13 01:52:22;;;;;;;;;1.00;1.00;;;;;17.28;60.98;99935.72;4998594;28;45463;-77
2023/03/13 01:55:03;;;;;;;;;1.00;1.00;;;;;17.34;61.29;99934.81;4998718;28;45363;-76
2023/03/13 01:57:35;;;;;;;;;0.33;0.33;;;;;17.35;61.48;99939.19;4983170;28;45462;-77
2023/03/13 02:00:15;;;;;;;;;0.00;0.00;;;;;17.34;61.77;99937.44;4998043;28;47364;-76
2023/03/13 02:02:45;;;;;;;;;0.67;0.67;;;;;17.36;61.39;99917.19;4994013;28;45538;-72
2023/03/13 02:05:13;;;;;;;;;1.00;1.00;;;;;17.36;61.35;99915.41;5012884;28;45436;-68
2023/03/13 02:07:45;;;;;;;;;1.00;1.00;;;;;17.35;61.88;99918.06;4998526;28;45461;-73
2023/03/13 02:10:13;;;;;;;;;1.00;1.00;;;;;17.22;61.85;99907.59;4998519;28;45416;-71
2023/03/13 02:12:40;;;;;;;;;1.00;1.00;;;;;17.16;62.41;99896.22;4998633;28;45427;-73
2023/03/13 02:15:16;;;;;;;;;1.00;1.00;;;;;17.18;62.16;99900.59;4998468;28;45346;-70
2023/03/13 02:17:44;;;;;;;;;1.00;0.00;;;;;17.31;61.31;99898.75;4998532;28;45412;-69
2023/03/13 02:20:12;;;;;;;;;0.67;0.00;;;;;17.36;61.46;99901.34;4997909;28;46242;-77
2023/03/13 02:22:57;;;;;;;;;1.00;1.00;;;;;17.38;61.02;99897.81;4998125;28;45620;-76
2023/03/13 02:25:23;;;;;;;;;1.00;1.00;;;;;17.42;60.90;99888.97;4997740;28;45609;-75
2023/03/13 02:28:02;;;;;;;;;0.67;0.67;;;;;17.41;61.07;99891.66;4997681;28;45511;-76
2023/03/13 02:30:27;;;;;;;;;0.00;0.00;;;;;17.38;61.31;99884.59;4998050;28;46033;-76
2023/03/13 02:32:54;;;;;;;;;0.00;0.00;;;;;17.37;61.02;99876.69;4997546;28;45532;-77
2023/03/13 02:35:22;;;;;;;;;0.00;0.00;;;;;17.40;60.48;99872.25;4998076;28;45390;-76
2023/03/13 02:37:53;;;;;;;;;0.00;0.00;;;;;17.53;59.48;99861.59;4998109;28;45712;-76
2023/03/13 02:40:30;;;;;;;;;0.00;0.00;;;;;17.66;59.09;99852.66;4997420;28;46258;-77
2023/03/13 02:42:57;;;;;;;;;1.00;1.00;;;;;17.72;58.63;99844.66;4997888;28;45566;-73
2023/03/13 02:45:23;;;;;;;;;0.00;0.00;;;;;17.74;58.66;99832.31;4997656;28;45534;-75
2023/03/13 02:47:49;;;;;;;;;0.00;0.00;;;;;17.73;58.95;99827.06;4997711;28;45363;-75
2023/03/13 02:50:15;;;;;;;;;1.67;1.67;;;;;17.72;58.77;99834.09;4997909;28;46130;-73
2023/03/13 02:52:46;;;;;;;;;1.33;1.33;;;;;17.71;58.75;99837.66;4997936;28;45456;-74
2023/03/13 02:55:17;;;;;;;;;1.67;1.67;;;;;17.73;58.16;99830.59;4998156;28;45375;-69
2023/03/13 02:57:43;;;;;;;;;2.00;1.67;;;;;17.72;58.11;99822.66;4998538;28;45660;-74
2023/03/13 03:00:11;;;;;;;;;3.67;3.67;;;;;17.70;58.38;99826.19;4997380;28;45793;-73
2023/03/13 03:02:38;;;;;;;;;12.00;11.00;;;;;17.66;58.35;99819.19;4996982;28;45437;-76
2023/03/13 03:05:04;;;;;;;;;1.00;0.00;;;;;17.64;58.61;99828.03;4997372;28;45510;-73
2023/03/13 03:07:30;;;;;;;;;1.67;1.67;;;;;17.62;58.74;99830.69;4997579;28;45636;-77
2023/03/13 03:09:56;;;;;;;;;0.67;0.33;;;;;17.54;58.80;99821.09;4995524;28;47604;-71
2023/03/13 03:12:21;;;;;;;;;2.33;2.33;;;;;17.52;59.14;99822.88;4996903;28;45423;-75
2023/03/13 03:14:47;;;;;;;;;4.67;4.00;;;;;17.47;59.24;99829.09;4997247;28;45489;-76
2023/03/13 03:17:12;;;;;;;;;2.67;2.67;;;;;17.42;59.69;99820.31;4997488;28;45500;-76
2023/03/13 03:19:38;;;;;;;;;7.00;6.67;;;;;17.40;59.69;99837.94;4997015;28;46055;-74
2023/03/13 03:22:04;;;;;;;;;0.33;0.33;;;;;17.32;59.23;99813.38;4996976;28;45736;-70
2023/03/13 03:24:29;;;;;;;;;1.67;1.67;;;;;17.38;59.23;99818.59;4997463;28;45377;-77
2023/03/13 03:26:55;;;;;;;;;2.00;2.00;;;;;17.29;59.33;99798.44;4997590;28;45502;-75
2023/03/13 03:29:20;;;;;;;;;1.00;1.00;;;;;17.30;58.86;99797.53;4996985;28;46005;-76
2023/03/13 03:31:46;;;;;;;;;1.00;1.00;;;;;17.39;59.08;99816.81;4997749;28;45642;-74
2023/03/13 03:34:11;;;;;;;;;2.00;1.33;;;;;17.39;59.22;99814.19;4997484;28;45376;-76
2023/03/13 03:36:37;;;;;;;;;2.00;2.00;;;;;17.37;59.38;99811.59;4997184;28;45375;-76
2023/03/13 03:39:04;;;;;;;;;2.00;2.00;;;;;17.33;59.29;99814.25;4997107;28;45459;-77
2023/03/13 03:41:30;;;;;;;;;1.33;1.33;;;;;17.33;59.35;99815.16;4997043;28;45348;-76
2023/03/13 03:43:55;;;;;;;;;4.00;2.00;;;;;17.40;59.02;99827.38;4997258;28;45686;-76
2023/03/13 03:46:21;;;;;;;;;4.00;3.67;;;;;17.42;58.99;99812.41;4996688;28;45493;-76
2023/03/13 03:48:46;;;;;;;;;2.00;2.00;;;;;17.45;58.68;99820.31;4996843;28;46056;-70
2023/03/13 03:51:12;;;;;;;;;3.00;3.00;;;;;17.47;58.69;99828.22;4997131;28;45400;-73
2023/03/13 03:53:38;;;;;;;;;3.33;2.33;;;;;17.47;58.58;99831.72;4996838;28;45464;-73
2023/03/13 03:56:04;;;;;;;;;9.00;8.00;;;;;17.49;58.37;99824.66;4996274;28;45491;-70
2023/03/13 03:58:29;;;;;;;;;1.00;1.00;;;;;17.50;58.09;99813.19;4996227;28;46118;-72
2023/03/13 04:00:56;;;;;;;;;7.00;7.00;;;;;17.50;58.38;99815.81;4996219;28;45357;-77
2023/03/13 04:03:22;;;;;;;;;7.33;6.00;;;;;17.50;58.04;99818.47;4997000;28;45517;-76
2023/03/13 04:05:48;;;;;;;;;2.00;2.00;;;;;17.48;58.49;99820.25;4996992;28;45633;-76
2023/03/13 04:08:14;;;;;;;;;1.00;1.00;;;;;17.44;58.94;99821.19;4997066;28;45937;-69
2023/03/13 04:10:39;;;;;;;;;1.00;1.00;;;;;17.36;59.66;99815.09;4995675;28;45391;-71
2023/03/13 04:13:05;;;;;;;;;1.00;1.00;;;;;17.27;59.66;99809.94;4996457;28;45379;-76
2023/03/13 04:15:30;;;;;;;;;4.67;4.00;;;;;17.29;59.58;99819.56;4995351;28;45489;-73
2023/03/13 04:17:56;;;;;;;;;2.00;2.00;;;;;17.27;58.98;99818.72;4996514;28;46449;-71
2023/03/13 04:20:21;;;;;;;;;1.00;1.00;;;;;17.23;59.55;99818.72;4995277;28;45175;-71
2023/03/13 04:22:47;;;;;;;;;1.00;1.00;;;;;17.18;59.54;99818.78;4996925;28;45308;-72
2023/03/13 04:25:12;;;;;;;;;1.00;1.00;;;;;17.13;60.10;99831.16;4996493;28;45546;-73
2023/03/13 04:27:38;;;;;;;;;1.00;1.00;;;;;17.08;60.08;99825.03;4996297;28;46090;-70
2023/03/13 04:30:04;;;;;;;;;0.33;0.33;;;;;17.06;59.99;99822.41;4996143;28;45467;-72
2023/03/13 04:32:30;;;;;;;;;1.00;0.00;;;;;17.04;59.88;99818.91;4996668;28;45357;-76
2023/03/13 04:34:55;;;;;;;;;1.00;0.33;;;;;17.02;59.87;99815.41;4996376;28;45608;-76
2023/03/13 04:37:20;;;;;;;;;2.00;2.00;;;;;17.00;59.63;99800.47;4996295;28;45710;-75
2023/03/13 04:39:46;;;;;;;;;1.00;1.00;;;;;17.12;59.31;99815.31;4996471;28;45478;-77
2023/03/13 04:42:12;;;;;;;;;0.67;0.33;;;;;17.12;59.41;99800.38;4995976;28;45371;-76
2023/03/13 04:44:37;;;;;;;;;1.00;1.00;;;;;17.19;59.03;99802.06;4995880;28;45551;-74
2023/03/13 04:47:03;;;;;;;;;1.00;1.00;;;;;17.25;58.98;99806.44;4995958;28;46197;-76
2023/03/13 04:49:29;;;;;;;;;2.67;2.00;;;;;17.19;58.91;99796.78;4995563;28;45502;-75
2023/03/13 04:51:55;;;;;;;;;21.25;19.75;;;;;17.19;59.02;99794.16;4995310;28;45431;-77
2023/03/13 04:54:21;;;;;;;;;2.67;2.00;;;;;17.25;59.03;99799.38;4996022;28;45798;-74
2023/03/13 04:56:47;;;;;;;;;11.67;11.67;;;;;17.23;59.17;99789.69;4995882;28;45859;-77
2023/03/13 04:59:14;;;;;;;;;1.00;1.00;;;;;17.31;58.84;99785.25;4995860;28;45426;-77
2023/03/13 05:01:41;;;;;;;;;1.00;1.00;;;;;17.36;58.73;99778.13;4995625;28;45605;-76
2023/03/13 05:04:08;;;;;;;;;2.00;2.00;;;;;17.38;58.59;99773.72;4995797;28;45648;-74
2023/03/13 05:06:34;;;;;;;;;1.00;1.00;;;;;17.40;58.62;99771.94;4995984;28;45343;-74
2023/03/13 05:09:00;;;;;;;;;9.00;8.33;;;;;17.41;58.46;99771.06;4995651;28;45316;-75
2023/03/13 05:11:26;;;;;;;;;3.00;2.33;;;;;17.42;58.63;99770.16;4995859;28;45551;-68
2023/03/13 05:13:51;;;;;;;;;3.00;3.00;;;;;17.37;58.81;99763.16;4995847;28;45427;-70
2023/03/13 05:16:17;;;;;;;;;5.00;4.67;;;;;17.42;58.65;99767.50;4996038;28;46107;-72
2023/03/13 05:18:43;;;;;;;;;8.00;7.00;;;;;17.38;58.81;99754.38;4996379;28;45482;-76
2023/03/13 05:21:08;;;;;;;;;2.00;1.33;;;;;17.34;58.74;99747.38;4995762;28;45363;-76
2023/03/13 05:23:34;;;;;;;;;1.00;1.00;;;;;17.44;58.59;99744.59;4998538;28;45427;-68
2023/03/13 05:25:59;;;;;;;;;0.33;0.33;;;;;17.44;58.28;99735.81;4998793;28;45666;-77
2023/03/13 05:28:26;;;;;;;;;1.00;1.00;;;;;17.52;58.25;99747.16;4998642;28;45384;-76
2023/03/13 05:30:51;;;;;;;;;1.00;1.00;;;;;17.59;58.07;99745.34;4999385;28;45379;-76
2023/03/13 05:33:18;;;;;;;;;0.00;0.00;;;;;17.60;58.14;99745.31;4999203;28;45491;-76
2023/03/13 05:35:44;;;;;;;;;1.33;1.33;;;;;17.59;57.85;99733.00;4982914;28;46533;-76
2023/03/13 05:38:10;;;;;;;;;1.00;0.67;;;;;17.65;57.62;99743.50;4996794;28;45354;-74
2023/03/13 05:40:36;;;;;;;;;1.00;1.00;;;;;17.68;57.63;99738.16;4998752;28;45486;-74
2023/03/13 05:43:01;;;;;;;;;1.00;1.00;;;;;17.68;57.58;99740.81;4999167;28;45352;-76
2023/03/13 05:45:27;;;;;;;;;0.67;0.67;;;;;17.72;57.50;99738.13;4999021;28;46092;-76
2023/03/13 05:47:53;;;;;;;;;1.67;1.33;;;;;17.75;57.37;99724.91;4999109;28;45597;-76
2023/03/13 05:50:18;;;;;;;;;1.33;0.67;;;;;17.70;57.38;99720.53;4999104;28;45493;-76
2023/03/13 05:52:44;;;;;;;;;0.00;0.00;;;;;17.82;57.30;99735.34;4998542;28;45854;-76
2023/03/13 05:55:09;;;;;;;;;0.67;0.67;;;;;17.76;57.46;99721.34;4998277;28;45553;-74
2023/03/13 05:57:35;;;;;;;;;0.67;0.67;;;;;17.79;57.48;99743.34;4998538;28;45479;-74
2023/03/13 06:00:02;;;;;;;;;2.00;2.00;;;;;17.73;57.29;99735.50;4998895;28;45609;-75
2023/03/13 06:02:27;;;;;;;;;5.00;3.67;;;;;17.74;57.26;99729.28;5013192;28;45637;-74
2023/03/13 06:04:53;;;;;;;;;2.67;2.33;;;;;17.76;57.66;99739.84;4997117;28;47907;-75
2023/03/13 06:07:18;;;;;;;;;0.67;0.67;;;;;17.71;57.78;99732.00;4998307;28;45446;-75
2023/03/13 06:09:44;;;;;;;;;0.67;0.67;;;;;17.67;58.19;99743.50;4997924;28;45260;-75
2023/03/13 06:12:11;;;;;;;;;1.67;1.67;;;;;17.62;58.34;99742.66;4998256;28;45537;-74
2023/03/13 06:14:39;;;;;;;;;2.33;2.33;;;;;17.44;59.24;99739.31;4998370;28;46015;-76
2023/03/13 06:17:05;;;;;;;;;2.00;2.00;;;;;17.39;60.20;99756.09;4997816;28;45565;-71
2023/03/13 06:19:31;;;;;;;;;1.00;1.00;;;;;17.26;60.03;99753.59;4998462;28;45403;-71
2023/03/13 06:21:56;;;;;;;;;1.00;1.00;;;;;17.23;60.02;99760.66;4998104;28;45621;-73
2023/03/13 06:24:22;;;;;;;;;4.00;4.00;;;;;17.22;59.91;99756.28;4998105;28;46059;-76
2023/03/13 06:26:49;;;;;;;;;15.50;14.75;;;;;17.17;59.67;99748.44;4997840;28;45453;-75
2023/03/13 06:29:15;;;;;;;;;5.33;4.67;;;;;17.22;59.20;99751.88;4998202;28;45613;-73
2023/03/13 06:31:41;;;;;;;;;3.67;3.67;;;;;17.28;58.70;99750.94;4997912;28;45493;-69
2023/03/13 06:34:09;;;;;;;;;5.00;4.00;;;;;17.31;59.00;99748.28;4996744;28;45532;-71
2023/03/13 06:36:35;;;;;;;;;9.00;8.33;;;;;17.33;58.87;99750.88;4997916;28;45496;-70
2023/03/13 06:39:01;;;;;;;;;9.00;7.67;;;;;17.31;58.74;99745.66;5012542;28;45558;-76
2023/03/13 06:41:26;;;;;;;;;12.00;10.33;;;;;17.35;58.74;99746.47;4998533;28;45583;-68
2023/03/13 06:43:52;;;;;;;;;7.00;7.00;;;;;17.36;59.00;99742.94;4997843;28;45498;-70
2023/03/13 06:46:21;;;;;;;;;3.67;3.00;;;;;17.36;58.96;99750.88;4997578;28;45463;-75
2023/03/13 06:48:47;;;;;;;;;3.67;3.00;;;;;17.36;58.83;99737.66;4998046;28;45418;-76
2023/03/13 06:51:14;;;;;;;;;5.00;4.33;;;;;17.43;58.88;99742.88;4997832;28;45289;-76
2023/03/13 06:53:41;;;;;;;;;8.00;7.67;;;;;17.46;58.76;99747.25;4996837;28;46181;-75
2023/03/13 06:56:08;;;;;;;;;24.00;22.25;;;;;17.50;58.75;99744.53;4997360;28;45343;-73
2023/03/13 06:58:33;;;;;;;;;26.25;24.00;;;;;17.57;58.57;99742.72;4996908;28;45415;-74
2023/03/13 07:01:05;;;;;;;;;34.00;31.00;;;;;17.66;58.44;99745.22;4996605;28;45486;-75
2023/03/13 07:03:30;;;;;;;;;54.25;44.50;;;;;17.75;58.60;99748.69;4996448;28;45295;-76
2023/03/13 07:05:56;;;;;;;;;59.25;47.50;;;;;17.85;58.09;99735.38;4998506;28;45572;-76
2023/03/13 07:08:24;;;;;;;;;30.25;29.25;;;;;17.97;57.79;99726.41;4999826;28;46133;-70
2023/03/13 07:10:51;;;;;;;;;28.25;27.25;;;;;18.11;57.69;99720.06;5004501;28;46177;-75
2023/03/13 07:13:18;;;;;;;;;22.00;19.75;;;;;18.20;57.29;99719.91;5006226;28;45382;-74
2023/03/13 07:15:44;;;;;;;;;20.25;20.25;;;;;18.26;57.23;99719.81;5004637;28;45567;-74
2023/03/13 07:18:10;;;;;;;;;21.00;21.00;;;;;18.34;57.39;99717.06;5005676;28;45403;-72
2023/03/13 07:20:36;;;;;;;;;8.33;8.33;;;;;18.41;56.83;99711.66;5010671;28;45418;-69
2023/03/13 07:23:01;;;;;;;;;5.33;5.33;;;;;18.47;56.81;99708.06;5001611;28;46172;-67
2023/03/13 07:25:27;;;;;;;;;5.33;5.00;;;;;18.48;57.06;99704.50;4999013;28;45614;-76
2023/03/13 07:27:52;;;;;;;;;3.67;3.67;;;;;18.51;56.95;99707.09;5005457;28;45533;-72
2023/03/13 07:30:18;;;;;;;;;6.00;4.00;;;;;18.46;56.64;99691.31;4999002;28;45344;-76
2023/03/13 07:32:44;;;;;;;;;2.00;2.00;;;;;18.57;56.49;99698.22;4998302;28;46194;-74
2023/03/13 07:35:10;;;;;;;;;6.00;5.00;;;;;18.67;56.48;99694.50;4998677;28;45505;-76
2023/03/13 07:37:35;;;;;;;;;5.33;4.33;;;;;18.78;56.32;99697.84;5002206;28;45586;-75
2023/03/13 07:40:00;;;;;;;;;3.33;2.67;;;;;18.88;55.74;99682.72;4998557;28;45560;-76
2023/03/13 07:42:26;;;;;;;;;3.33;3.00;;;;;19.06;55.79;99681.53;4998019;28;46007;-75
2023/03/13 07:44:52;;;;;;;;;3.33;3.00;;;;;19.19;54.71;99687.44;4995590;28;45517;-76
2023/03/13 07:47:18;;;;;;;;;2.00;2.00;;;;;19.29;54.58;99673.13;4995403;28;45792;-80
2023/03/13 07:49:45;;;;;;;;;2.00;2.00;;;;;19.46;54.12;99664.84;4996490;28;45595;-75
2023/03/13 07:52:11;;;;;;;;;2.00;2.00;;;;;19.61;53.56;99659.22;4995022;28;46429;-75
2023/03/13 07:54:36;;;;;;;;;2.00;1.00;;;;;19.81;53.11;99655.28;4996189;28;45399;-73
2023/03/13 07:57:02;;;;;;;;;2.33;2.33;;;;;19.90;52.36;99643.63;4997198;28;45438;-74
2023/03/13 07:59:28;;;;;;;;;2.67;2.00;;;;;19.96;52.51;99628.44;4996934;28;45633;-75
2023/03/13 08:01:53;;;;;;;;;1.00;1.00;;;;;20.24;51.41;99631.31;4996505;28;45476;-72
2023/03/13 08:04:19;;;;;;;;;3.00;2.00;;;;;20.87;51.18;99634.19;4996927;28;45523;-72
2023/03/13 08:06:44;;;;;;;;;2.67;2.00;;;;;21.23;49.20;99623.47;4996656;28;45380;-69
2023/03/13 08:09:10;;;;;;;;;1.00;1.00;;;;;23.11;47.54;99620.13;4997194;28;45401;-74
2023/03/13 08:11:39;;;;;;;;;1.33;1.00;;;;;25.95;40.31;99621.59;4997296;28;45470;-74
2023/03/13 08:14:05;;;;;;;;;2.00;2.00;;;;;27.55;38.86;99631.31;4996864;28;45414;-73
2023/03/13 08:16:33;;;;;;;;;3.33;3.33;;;;;28.88;35.20;99625.50;4996096;28;45465;-71
2023/03/13 08:19:00;;;;;;;;;3.00;3.00;;;;;30.13;34.09;99623.94;4995801;28;45510;-73
2023/03/13 08:21:28;;;;;;;;;1.50;1.50;;;;;31.41;31.89;99609.84;4995927;28;45497;-74
2023/03/13 08:23:56;;;;;;;;;2.00;2.00;;;;;32.52;30.11;99598.16;4995637;28;45606;-74
2023/03/13 08:26:26;;;;;;;;;1.33;1.33;;;;;33.32;27.75;99598.22;4995795;28;45526;-76
2023/03/13 08:28:53;;;;;;;;;3.00;2.67;;;;;33.77;27.47;99598.25;4996584;28;45788;-72
2023/03/13 08:31:22;;;;;;;;;1.00;1.00;;;;;34.57;27.86;99602.41;4995072;28;47298;-74
2023/03/13 08:33:48;;;;;;;;;1.00;1.00;;;;;35.58;25.90;99587.31;4995277;28;45610;-70
2023/03/13 08:36:17;;;;;;;;;2.00;1.33;;;;;35.00;26.29;99590.63;4995461;28;45491;-75
2023/03/13 08:38:44;;;;;;;;;0.67;0.33;;;;;35.75;25.34;99582.25;4992595;28;45229;-68
2023/03/13 08:41:11;;;;;;;;;2.00;1.00;;;;;36.41;24.74;99577.06;4995557;28;45537;-74
2023/03/13 08:43:37;;;;;;;;;1.00;1.00;;;;;36.32;24.34;99574.34;4996127;28;45467;-77
2023/03/13 08:46:03;;;;;;;;;0.67;0.67;;;;;35.47;23.68;99570.28;4995566;28;45590;-69
2023/03/13 08:48:28;;;;;;;;;0.33;0.33;;;;;34.23;26.05;99583.59;4994473;28;45550;-75
2023/03/13 08:51:01;;;;;;;;;1.00;1.00;;;;;33.24;26.83;99565.50;4995403;28;45640;-77
2023/03/13 08:53:27;;;;;;;;;1.00;1.00;;;;;34.00;25.82;99555.72;4993145;28;45496;-77
2023/03/13 08:55:53;;;;;;;;;1.00;1.00;;;;;33.17;26.90;99553.47;4996216;28;45487;-78
2023/03/13 08:58:18;;;;;;;;;1.00;1.00;;;;;32.70;26.96;99559.75;4997551;28;45443;-78
2023/03/13 09:00:44;;;;;;;;;1.00;1.00;;;;;33.16;27.31;99551.75;4997606;28;46270;-77
2023/03/13 09:03:09;;;;;;;;;1.33;1.33;;;;;32.23;27.16;99550.75;4998813;28;45364;-78
2023/03/13 09:05:36;;;;;;;;;2.00;1.00;;;;;31.71;28.72;99524.94;4999347;28;45398;-77
2023/03/13 09:08:02;;;;;;;;;1.00;1.00;;;;;32.92;26.79;99536.44;4999545;28;45325;-77
2023/03/13 09:10:27;;;;;;;;;2.00;2.00;;;;;33.24;26.28;99527.63;4998856;28;45524;-77
2023/03/13 09:12:53;;;;;;;;;0.00;0.00;;;;;33.75;25.85;99529.78;5008566;28;45568;-77
2023/03/13 09:15:19;;;;;;;;;1.33;1.33;;;;;34.27;25.17;99514.56;5018353;28;45385;-77
2023/03/13 09:17:44;;;;;;;;;1.00;1.00;;;;;34.69;25.78;99521.03;5001779;28;45572;-77
2023/03/13 09:20:10;;;;;;;;;1.67;1.67;;;;;35.28;24.90;99517.63;4998217;28;45606;-77
2023/03/13 09:22:36;;;;;;;;;1.67;1.67;;;;;35.68;24.64;99513.19;4999071;28;45457;-77
2023/03/13 09:25:01;;;;;;;;;3.00;2.00;;;;;36.12;24.06;99527.22;4999547;28;45505;-78
2023/03/13 09:27:34;;;;;;;;;6.00;6.00;;;;;36.20;23.85;99520.09;4999191;28;45306;-77
2023/03/13 09:29:59;;;;;;;;;2.00;2.00;;;;;36.24;22.90;99517.94;4995481;28;45966;-78
2023/03/13 09:32:25;;;;;;;;;1.33;1.33;;;;;36.39;22.31;99519.22;4988407;28;45644;-78
2023/03/13 09:34:50;;;;;;;;;1.33;1.33;;;;;36.18;22.54;99513.94;4999240;28;45403;-78
2023/03/13 09:37:16;;;;;;;;;1.33;1.33;;;;;36.07;22.04;99507.75;4998689;28;45583;-77
2023/03/13 09:39:41;;;;;;;;;1.00;1.00;;;;;35.91;22.32;99494.75;4998866;28;45489;-78
2023/03/13 09:42:38;;;;;;;;;1.00;1.00;;;;;35.57;22.01;99504.09;4988672;28;45463;-78
2023/03/13 09:45:15;;;;;;;;;0.67;0.67;;;;;35.25;22.99;99497.03;4992904;28;45423;-77
2023/03/13 09:47:53;;;;;;;;;7.33;7.33;;;;;35.22;23.89;99489.16;4998690;28;45404;-78
2023/03/13 09:50:26;;;;;;;;;3.00;3.00;;;;;35.17;24.24;99496.00;4998823;28;45504;-78
2023/03/13 09:53:02;;;;;;;;;2.00;2.00;;;;;35.22;23.56;99494.59;4998534;28;45436;-78
2023/03/13 09:55:31;;;;;;;;;1.33;1.33;;;;;34.67;23.31;99494.88;4999007;28;45273;-78
2023/03/13 09:58:24;;;;;;;;;2.00;2.00;;;;;34.64;23.74;99480.72;4996928;28;45502;-76
2023/03/13 10:01:01;;;;;;;;;3.00;3.00;;;;;34.46;23.46;99489.47;4983345;28;45696;-78
2023/03/13 10:03:37;;;;;;;;;1.00;1.00;;;;;34.24;23.91;99495.88;4998048;28;45489;-78
2023/03/13 10:06:39;;;;;;;;;2.33;1.33;;;;;33.49;24.42;99512.97;5013530;28;45526;-77
2023/03/13 10:09:29;;;;;;;;;1.00;1.00;;;;;33.45;25.17;99508.78;4980778;28;45497;-77
2023/03/13 10:12:14;;;;;;;;;2.00;2.00;;;;;33.82;25.06;99520.19;4997477;28;46063;-78
2023/03/13 10:14:52;;;;;;;;;3.00;3.00;;;;;34.03;25.17;99516.66;4996688;28;45555;-77
2023/03/13 10:17:33;;;;;;;;;1.00;1.00;;;;;34.00;24.63;99511.47;4998330;28;45303;-77
2023/03/13 10:20:26;;;;;;;;;2.00;2.00;;;;;34.06;24.89;99508.25;4997778;28;45412;-77
2023/03/13 10:22:58;;;;;;;;;2.00;2.00;;;;;34.11;23.79;99497.03;4998194;28;46201;-78
2023/03/13 10:25:30;;;;;;;;;0.67;0.67;;;;;34.26;23.61;99504.75;4998263;28;45359;-78
2023/03/13 10:27:56;;;;;;;;;2.00;2.00;;;;;34.15;24.58;99504.78;4997664;28;45383;-77
2023/03/13 10:30:30;;;;;;;;;1.67;0.67;;;;;33.84;24.53;99498.34;4998271;28;45431;-78
2023/03/13 10:33:06;;;;;;;;;3.00;2.00;;;;;33.66;24.80;99503.47;5013083;28;48038;-77
2023/03/13 10:35:35;;;;;;;;;0.00;0.00;;;;;33.28;24.73;99504.72;4996135;28;45243;-78
2023/03/13 10:38:10;;;;;;;;;1.00;1.00;;;;;33.33;24.75;99497.13;4997893;28;45400;-77
2023/03/13 10:40:35;;;;;;;;;1.33;1.33;;;;;33.66;24.63;99498.03;5012993;28;45711;-76
2023/03/13 10:43:12;;;;;;;;;2.00;2.00;;;;;33.76;24.67;99499.00;4997866;28;45430;-77
2023/03/13 10:45:37;;;;;;;;;1.33;1.33;;;;;33.97;24.58;99487.34;4997949;28;45785;-78
2023/03/13 10:48:20;;;;;;;;;1.33;1.33;;;;;34.03;24.73;99482.25;4997930;28;45360;-75
2023/03/13 10:50:49;;;;;;;;;5.00;5.00;;;;;33.91;23.99;99480.59;4989418;28;45491;-78
2023/03/13 10:53:32;;;;;;;;;1.00;1.00;;;;;33.92;24.79;99481.47;4996941;28;46483;-78
2023/03/13 10:56:36;;;;;;;;;1.00;1.00;;;;;34.01;24.36;99472.56;4995858;28;45494;-78
2023/03/13 10:59:01;;;;;;;;;1.33;1.33;;;;;33.89;23.49;99463.63;4996580;28;45308;-77
2023/03/13 11:01:32;;;;;;;;;1.33;1.33;;;;;33.72;23.27;99456.06;4997090;28;45588;-78
2023/03/13 11:04:01;;;;;;;;;2.00;2.00;;;;;33.44;24.19;99444.78;4996262;28;45412;-78
2023/03/13 11:06:29;;;;;;;;;1.00;1.00;;;;;32.94;23.93;99438.94;4996539;28;45368;-79
2023/03/13 11:08:58;;;;;;;;;2.00;2.00;;;;;32.78;25.22;99437.47;4996853;28;45605;-76
2023/03/13 11:11:29;;;;;;;;;1.33;1.33;;;;;32.83;24.25;99435.25;4996873;28;45372;-78
2023/03/13 11:14:07;;;;;;;;;1.67;1.67;;;;;32.51;24.72;99424.28;4996074;28;46099;-75
2023/03/13 11:16:39;;;;;;;;;2.00;1.00;;;;;32.33;25.33;99447.34;4995487;28;45542;-78
2023/03/13 11:19:14;;;;;;;;;3.00;2.67;;;;;32.28;24.76;99432.34;5002019;28;45404;-78
2023/03/13 11:22:01;;;;;;;;;2.00;2.00;;;;;32.05;24.37;99417.94;4992328;28;45515;-77
2023/03/13 11:25:05;;;;;;;;;2.00;2.00;;;;;31.87;24.69;99404.00;4995765;28;47048;-77
2023/03/13 11:27:43;;;;;;;;;1.00;1.00;;;;;31.27;25.56;99408.47;4959602;28;47102;-78
2023/03/13 11:30:43;;;;;;;;;1.67;1.67;;;;;31.13;25.34;99401.38;4994816;28;45329;-79
2023/03/13 11:33:36;;;;;;;;;1.33;1.33;;;;;31.11;24.65;99405.19;4991169;28;45823;-73
2023/03/13 11:36:28;;;;;;;;;1.67;1.67;;;;;31.06;24.61;99401.97;4996333;28;45956;-78
2023/03/13 11:39:16;;;;;;;;;2.67;2.67;;;;;30.91;25.39;99388.63;4999203;28;45458;-80